SGCO/CIO METAR and TAF weather

Enter ICAO airport designator
Station Type Date Time Source
SGCO METAR 2019/08/19 10:00 UTC NOAA

SGCO 191000Z 18012KT 9999 SCT027 OVC070 16/10 Q 1018


Station Type Date Time Source
SGCO Decoded METAR 2019/08/19 10:00 UTC NOAA

Station name not available
Aug 19, 2019 - 06:00 AM EDT / 2019.08.19 1000 UTC
Wind: from the S (180 degrees) at 14 MPH (12 KT):0
Visibility: greater than 7 mile(s):0
Sky conditions: overcast
Temperature: 60 F (16 C)
Dew Point: 50 F (10 C)
Relative Humidity: 67%
Pressure (altimeter): 30.06 in. Hg (1018 hPa)
ob: SGCO 191000Z 18012KT 9999 SCT027 OVC070 16/10 Q 1018
cycle: 10

Station Type Date Time Source
SGCO TAF 2019/08/23 12:00 UTC NOAA

TAF
AMD SGCO 231114Z 2312/2412 18008KT 7000 NSC TX30/2319Z TN16/2409Z
BECMG 2313/2316 14005KT
BECMG 2320/2323 3000 FU NSC

Example: see airport list